sensor_id;sensor_type;location;lat;lon;timestamp;P1;durP1;ratioP1;P2;durP2;ratioP2
4023;SDS011;2026;51.002;13.668;2023-06-26T00:01:57;7.97;;;6.83;;
4023;SDS011;2026;51.002;13.668;2023-06-26T00:07:00;8.30;;;7.50;;
4023;SDS011;2026;51.002;13.668;2023-06-26T00:12:05;11.67;;;7.50;;
4023;SDS011;2026;51.002;13.668;2023-06-26T00:17:08;8.73;;;7.10;;
4023;SDS011;2026;51.002;13.668;2023-06-26T00:22:11;11.03;;;6.60;;
4023;SDS011;2026;51.002;13.668;2023-06-26T00:27:15;9.90;;;6.67;;
4023;SDS011;2026;51.002;13.668;2023-06-26T00:32:18;8.70;;;6.60;;
4023;SDS011;2026;51.002;13.668;2023-06-26T00:37:21;7.27;;;6.57;;
4023;SDS011;2026;51.002;13.668;2023-06-26T00:42:26;9.70;;;6.97;;
4023;SDS011;2026;51.002;13.668;2023-06-26T00:47:29;7.60;;;6.70;;
4023;SDS011;2026;51.002;13.668;2023-06-26T00:52:32;8.13;;;6.70;;
4023;SDS011;2026;51.002;13.668;2023-06-26T00:57:37;8.90;;;7.47;;
4023;SDS011;2026;51.002;13.668;2023-06-26T01:02:41;7.40;;;6.53;;
4023;SDS011;2026;51.002;13.668;2023-06-26T01:07:44;8.83;;;7.00;;
4023;SDS011;2026;51.002;13.668;2023-06-26T01:12:48;8.50;;;7.37;;
4023;SDS011;2026;51.002;13.668;2023-06-26T01:17:51;8.40;;;6.97;;
4023;SDS011;2026;51.002;13.668;2023-06-26T01:22:56;8.17;;;6.60;;
4023;SDS011;2026;51.002;13.668;2023-06-26T01:28:09;7.70;;;6.83;;
4023;SDS011;2026;51.002;13.668;2023-06-26T01:33:14;11.80;;;7.30;;
4023;SDS011;2026;51.002;13.668;2023-06-26T01:38:17;8.17;;;6.97;;
4023;SDS011;2026;51.002;13.668;2023-06-26T01:43:24;8.80;;;6.43;;
4023;SDS011;2026;51.002;13.668;2023-06-26T01:48:34;8.83;;;6.90;;
4023;SDS011;2026;51.002;13.668;2023-06-26T01:53:45;10.43;;;6.60;;
4023;SDS011;2026;51.002;13.668;2023-06-26T01:58:55;7.20;;;6.50;;
4023;SDS011;2026;51.002;13.668;2023-06-26T02:03:59;7.40;;;6.50;;
4023;SDS011;2026;51.002;13.668;2023-06-26T02:09:04;8.53;;;6.60;;
4023;SDS011;2026;51.002;13.668;2023-06-26T02:14:09;7.87;;;6.47;;
4023;SDS011;2026;51.002;13.668;2023-06-26T02:19:12;7.87;;;6.87;;
4023;SDS011;2026;51.002;13.668;2023-06-26T02:24:22;8.47;;;7.53;;
4023;SDS011;2026;51.002;13.668;2023-06-26T02:29:27;7.77;;;6.73;;
4023;SDS011;2026;51.002;13.668;2023-06-26T02:34:30;9.47;;;6.70;;
4023;SDS011;2026;51.002;13.668;2023-06-26T02:39:35;9.90;;;7.80;;
4023;SDS011;2026;51.002;13.668;2023-06-26T02:44:40;8.20;;;6.50;;
4023;SDS011;2026;51.002;13.668;2023-06-26T02:49:44;7.60;;;6.10;;
4023;SDS011;2026;51.002;13.668;2023-06-26T02:54:47;7.37;;;6.50;;
4023;SDS011;2026;51.002;13.668;2023-06-26T02:59:51;10.27;;;6.60;;
4023;SDS011;2026;51.002;13.668;2023-06-26T03:04:54;7.80;;;7.00;;
4023;SDS011;2026;51.002;13.668;2023-06-26T03:09:59;8.67;;;6.90;;
4023;SDS011;2026;51.002;13.668;2023-06-26T03:15:03;7.27;;;6.27;;
4023;SDS011;2026;51.002;13.668;2023-06-26T03:20:07;9.27;;;6.47;;
4023;SDS011;2026;51.002;13.668;2023-06-26T03:25:22;7.30;;;5.60;;
4023;SDS011;2026;51.002;13.668;2023-06-26T03:30:36;8.33;;;6.40;;
4023;SDS011;2026;51.002;13.668;2023-06-26T03:35:40;8.17;;;5.80;;
4023;SDS011;2026;51.002;13.668;2023-06-26T03:40:46;6.67;;;5.60;;
4023;SDS011;2026;51.002;13.668;2023-06-26T03:45:51;9.50;;;6.40;;
4023;SDS011;2026;51.002;13.668;2023-06-26T03:50:54;7.00;;;6.07;;
4023;SDS011;2026;51.002;13.668;2023-06-26T03:55:57;12.00;;;6.67;;
4023;SDS011;2026;51.002;13.668;2023-06-26T04:01:02;10.63;;;6.50;;
4023;SDS011;2026;51.002;13.668;2023-06-26T04:06:06;9.40;;;5.90;;
4023;SDS011;2026;51.002;13.668;2023-06-26T04:11:09;7.97;;;6.30;;
4023;SDS011;2026;51.002;13.668;2023-06-26T04:16:13;8.57;;;6.67;;
4023;SDS011;2026;51.002;13.668;2023-06-26T04:21:17;9.93;;;6.30;;
4023;SDS011;2026;51.002;13.668;2023-06-26T04:26:21;9.20;;;6.30;;
4023;SDS011;2026;51.002;13.668;2023-06-26T04:31:25;7.60;;;6.53;;
4023;SDS011;2026;51.002;13.668;2023-06-26T04:36:28;11.40;;;5.97;;
4023;SDS011;2026;51.002;13.668;2023-06-26T04:41:32;7.10;;;6.20;;
4023;SDS011;2026;51.002;13.668;2023-06-26T04:46:37;7.53;;;6.50;;
4023;SDS011;2026;51.002;13.668;2023-06-26T04:51:42;6.70;;;5.97;;
4023;SDS011;2026;51.002;13.668;2023-06-26T04:56:45;6.32;;;5.72;;
4023;SDS011;2026;51.002;13.668;2023-06-26T05:01:50;7.50;;;5.43;;
4023;SDS011;2026;51.002;13.668;2023-06-26T05:06:53;7.43;;;5.93;;
4023;SDS011;2026;51.002;13.668;2023-06-26T05:11:56;7.57;;;5.60;;
4023;SDS011;2026;51.002;13.668;2023-06-26T05:17:01;7.22;;;5.60;;
4023;SDS011;2026;51.002;13.668;2023-06-26T05:22:04;7.57;;;5.53;;
4023;SDS011;2026;51.002;13.668;2023-06-26T05:27:09;6.45;;;5.85;;
4023;SDS011;2026;51.002;13.668;2023-06-26T05:32:22;6.72;;;5.80;;
4023;SDS011;2026;51.002;13.668;2023-06-26T05:37:26;11.18;;;6.35;;
4023;SDS011;2026;51.002;13.668;2023-06-26T05:42:31;8.82;;;6.28;;
4023;SDS011;2026;51.002;13.668;2023-06-26T05:47:36;6.82;;;6.13;;
4023;SDS011;2026;51.002;13.668;2023-06-26T05:52:40;8.75;;;5.88;;
4023;SDS011;2026;51.002;13.668;2023-06-26T05:57:43;7.22;;;6.18;;
4023;SDS011;2026;51.002;13.668;2023-06-26T06:02:49;8.50;;;5.75;;
4023;SDS011;2026;51.002;13.668;2023-06-26T06:07:55;6.50;;;5.90;;
4023;SDS011;2026;51.002;13.668;2023-06-26T06:12:58;7.25;;;5.97;;
4023;SDS011;2026;51.002;13.668;2023-06-26T06:18:02;8.20;;;6.25;;
4023;SDS011;2026;51.002;13.668;2023-06-26T06:23:06;6.90;;;6.20;;
4023;SDS011;2026;51.002;13.668;2023-06-26T06:28:09;8.82;;;6.45;;
4023;SDS011;2026;51.002;13.668;2023-06-26T06:33:13;7.25;;;6.50;;
4023;SDS011;2026;51.002;13.668;2023-06-26T06:38:16;7.68;;;6.38;;
4023;SDS011;2026;51.002;13.668;2023-06-26T06:43:19;6.85;;;5.95;;
4023;SDS011;2026;51.002;13.668;2023-06-26T06:48:23;11.15;;;6.32;;
4023;SDS011;2026;51.002;13.668;2023-06-26T06:53:26;6.68;;;5.95;;
4023;SDS011;2026;51.002;13.668;2023-06-26T06:58:29;7.22;;;5.90;;
4023;SDS011;2026;51.002;13.668;2023-06-26T07:03:36;6.53;;;5.93;;
4023;SDS011;2026;51.002;13.668;2023-06-26T07:08:40;7.00;;;6.28;;
4023;SDS011;2026;51.002;13.668;2023-06-26T07:13:42;8.15;;;6.30;;
4023;SDS011;2026;51.002;13.668;2023-06-26T07:18:48;7.07;;;6.22;;
4023;SDS011;2026;51.002;13.668;2023-06-26T07:23:51;8.40;;;5.85;;
4023;SDS011;2026;51.002;13.668;2023-06-26T07:28:54;11.13;;;6.47;;
4023;SDS011;2026;51.002;13.668;2023-06-26T07:33:59;9.15;;;6.50;;
4023;SDS011;2026;51.002;13.668;2023-06-26T07:39:02;6.80;;;6.07;;
4023;SDS011;2026;51.002;13.668;2023-06-26T07:44:05;7.65;;;6.68;;
4023;SDS011;2026;51.002;13.668;2023-06-26T07:49:10;7.00;;;6.30;;
4023;SDS011;2026;51.002;13.668;2023-06-26T07:54:13;7.18;;;6.18;;
4023;SDS011;2026;51.002;13.668;2023-06-26T07:59:16;6.78;;;6.18;;
4023;SDS011;2026;51.002;13.668;2023-06-26T08:04:22;7.18;;;6.47;;
4023;SDS011;2026;51.002;13.668;2023-06-26T08:09:27;7.18;;;6.53;;
4023;SDS011;2026;51.002;13.668;2023-06-26T08:14:30;6.88;;;6.28;;
4023;SDS011;2026;51.002;13.668;2023-06-26T08:19:35;7.30;;;6.60;;
4023;SDS011;2026;51.002;13.668;2023-06-26T08:24:38;7.43;;;6.28;;
4023;SDS011;2026;51.002;13.668;2023-06-26T08:29:41;7.97;;;7.18;;
4023;SDS011;2026;51.002;13.668;2023-06-26T08:34:45;8.23;;;6.57;;
4023;SDS011;2026;51.002;13.668;2023-06-26T08:39:49;7.22;;;6.53;;
4023;SDS011;2026;51.002;13.668;2023-06-26T08:44:52;7.00;;;6.30;;
4023;SDS011;2026;51.002;13.668;2023-06-26T08:50:07;8.73;;;5.90;;
4023;SDS011;2026;51.002;13.668;2023-06-26T08:55:11;6.60;;;6.00;;
4023;SDS011;2026;51.002;13.668;2023-06-26T09:00:17;6.97;;;6.38;;
4023;SDS011;2026;51.002;13.668;2023-06-26T09:05:22;7.28;;;6.57;;
4023;SDS011;2026;51.002;13.668;2023-06-26T09:10:25;6.63;;;5.72;;
4023;SDS011;2026;51.002;13.668;2023-06-26T09:15:36;6.50;;;5.90;;
4023;SDS011;2026;51.002;13.668;2023-06-26T09:20:42;7.43;;;6.65;;
4023;SDS011;2026;51.002;13.668;2023-06-26T09:25:46;6.78;;;6.07;;
4023;SDS011;2026;51.002;13.668;2023-06-26T09:30:50;7.03;;;6.32;;
4023;SDS011;2026;51.002;13.668;2023-06-26T09:35:55;7.18;;;6.47;;
4023;SDS011;2026;51.002;13.668;2023-06-26T09:40:58;6.45;;;5.80;;
4023;SDS011;2026;51.002;13.668;2023-06-26T09:46:01;6.68;;;6.07;;
4023;SDS011;2026;51.002;13.668;2023-06-26T09:51:07;6.35;;;5.63;;
4023;SDS011;2026;51.002;13.668;2023-06-26T09:56:14;6.30;;;5.70;;
4023;SDS011;2026;51.002;13.668;2023-06-26T10:01:19;12.18;;;7.03;;
4023;SDS011;2026;51.002;13.668;2023-06-26T10:06:24;6.50;;;5.82;;
4023;SDS011;2026;51.002;13.668;2023-06-26T10:11:33;6.22;;;5.50;;
4023;SDS011;2026;51.002;13.668;2023-06-26T10:16:40;6.68;;;5.72;;
4023;SDS011;2026;51.002;13.668;2023-06-26T10:21:47;5.90;;;5.40;;
4023;SDS011;2026;51.002;13.668;2023-06-26T10:26:50;6.68;;;5.90;;
4023;SDS011;2026;51.002;13.668;2023-06-26T10:31:57;6.22;;;5.60;;
4023;SDS011;2026;51.002;13.668;2023-06-26T10:37:06;6.53;;;6.00;;
4023;SDS011;2026;51.002;13.668;2023-06-26T10:42:09;7.03;;;6.35;;
4023;SDS011;2026;51.002;13.668;2023-06-26T10:47:28;6.97;;;6.28;;
4023;SDS011;2026;51.002;13.668;2023-06-26T10:52:37;5.93;;;5.43;;
4023;SDS011;2026;51.002;13.668;2023-06-26T10:57:40;7.20;;;6.03;;
4023;SDS011;2026;51.002;13.668;2023-06-26T11:02:48;7.03;;;6.05;;
4023;SDS011;2026;51.002;13.668;2023-06-26T11:08:06;8.27;;;5.88;;
4023;SDS011;2026;51.002;13.668;2023-06-26T11:13:10;6.15;;;5.55;;
4023;SDS011;2026;51.002;13.668;2023-06-26T11:18:13;8.18;;;6.43;;
4023;SDS011;2026;51.002;13.668;2023-06-26T11:23:19;6.97;;;6.00;;
4023;SDS011;2026;51.002;13.668;2023-06-26T11:28:26;8.80;;;5.97;;
4023;SDS011;2026;51.002;13.668;2023-06-26T11:33:29;6.95;;;5.35;;
4023;SDS011;2026;51.002;13.668;2023-06-26T11:38:38;6.32;;;5.63;;
4023;SDS011;2026;51.002;13.668;2023-06-26T11:43:41;6.30;;;5.80;;
4023;SDS011;2026;51.002;13.668;2023-06-26T11:48:44;9.60;;;6.22;;
4023;SDS011;2026;51.002;13.668;2023-06-26T11:53:49;7.00;;;6.22;;
4023;SDS011;2026;51.002;13.668;2023-06-26T11:58:57;6.20;;;5.70;;
4023;SDS011;2026;51.002;13.668;2023-06-26T12:04:02;5.90;;;5.40;;
4023;SDS011;2026;51.002;13.668;2023-06-26T12:09:09;6.82;;;6.13;;
4023;SDS011;2026;51.002;13.668;2023-06-26T12:14:13;7.72;;;5.95;;
4023;SDS011;2026;51.002;13.668;2023-06-26T12:19:17;6.43;;;5.78;;
4023;SDS011;2026;51.002;13.668;2023-06-26T12:24:27;6.90;;;6.30;;
4023;SDS011;2026;51.002;13.668;2023-06-26T12:29:31;7.68;;;6.63;;
4023;SDS011;2026;51.002;13.668;2023-06-26T12:34:36;7.63;;;6.25;;
4023;SDS011;2026;51.002;13.668;2023-06-26T12:39:48;6.05;;;5.55;;
4023;SDS011;2026;51.002;13.668;2023-06-26T12:44:52;7.65;;;6.80;;
4023;SDS011;2026;51.002;13.668;2023-06-26T12:49:58;6.85;;;6.25;;
4023;SDS011;2026;51.002;13.668;2023-06-26T12:55:02;6.80;;;6.10;;
4023;SDS011;2026;51.002;13.668;2023-06-26T13:00:06;7.07;;;6.43;;
4023;SDS011;2026;51.002;13.668;2023-06-26T13:05:11;5.90;;;5.30;;
4023;SDS011;2026;51.002;13.668;2023-06-26T13:10:16;7.10;;;6.50;;
4023;SDS011;2026;51.002;13.668;2023-06-26T13:15:19;7.07;;;6.47;;
4023;SDS011;2026;51.002;13.668;2023-06-26T13:20:22;6.93;;;6.30;;
4023;SDS011;2026;51.002;13.668;2023-06-26T13:25:26;7.30;;;6.60;;
4023;SDS011;2026;51.002;13.668;2023-06-26T13:30:29;6.03;;;5.47;;
4023;SDS011;2026;51.002;13.668;2023-06-26T13:35:32;6.55;;;5.95;;
4023;SDS011;2026;51.002;13.668;2023-06-26T13:40:37;6.78;;;6.07;;
4023;SDS011;2026;51.002;13.668;2023-06-26T13:45:40;8.32;;;6.82;;
4023;SDS011;2026;51.002;13.668;2023-06-26T13:50:43;7.03;;;6.03;;
4023;SDS011;2026;51.002;13.668;2023-06-26T13:55:56;7.15;;;5.88;;
4023;SDS011;2026;51.002;13.668;2023-06-26T14:00:59;6.35;;;5.75;;
4023;SDS011;2026;51.002;13.668;2023-06-26T14:06:02;6.75;;;6.05;;
4023;SDS011;2026;51.002;13.668;2023-06-26T14:11:07;6.85;;;6.15;;
4023;SDS011;2026;51.002;13.668;2023-06-26T14:16:10;7.43;;;6.72;;
4023;SDS011;2026;51.002;13.668;2023-06-26T14:21:13;6.93;;;6.32;;
4023;SDS011;2026;51.002;13.668;2023-06-26T14:26:17;8.05;;;7.10;;
4023;SDS011;2026;51.002;13.668;2023-06-26T14:31:20;7.82;;;7.03;;
4023;SDS011;2026;51.002;13.668;2023-06-26T14:36:24;7.10;;;6.40;;
4023;SDS011;2026;51.002;13.668;2023-06-26T14:41:30;6.68;;;6.07;;
4023;SDS011;2026;51.002;13.668;2023-06-26T14:46:33;8.20;;;7.40;;
4023;SDS011;2026;51.002;13.668;2023-06-26T14:51:37;11.82;;;8.27;;
4023;SDS011;2026;51.002;13.668;2023-06-26T14:56:42;7.75;;;6.93;;
4023;SDS011;2026;51.002;13.668;2023-06-26T15:01:47;7.07;;;6.38;;
4023;SDS011;2026;51.002;13.668;2023-06-26T15:06:52;6.95;;;6.32;;
4023;SDS011;2026;51.002;13.668;2023-06-26T15:11:56;7.43;;;6.63;;
4023;SDS011;2026;51.002;13.668;2023-06-26T15:16:59;8.45;;;7.60;;
4023;SDS011;2026;51.002;13.668;2023-06-26T15:22:02;8.15;;;7.35;;
4023;SDS011;2026;51.002;13.668;2023-06-26T15:27:06;7.18;;;6.47;;
4023;SDS011;2026;51.002;13.668;2023-06-26T15:32:10;8.18;;;7.35;;
4023;SDS011;2026;51.002;13.668;2023-06-26T15:37:13;7.78;;;6.97;;
4023;SDS011;2026;51.002;13.668;2023-06-26T15:42:17;8.10;;;7.20;;
4023;SDS011;2026;51.002;13.668;2023-06-26T15:47:20;8.20;;;7.40;;
4023;SDS011;2026;51.002;13.668;2023-06-26T15:52:23;7.40;;;6.70;;
4023;SDS011;2026;51.002;13.668;2023-06-26T15:57:27;7.30;;;6.18;;
4023;SDS011;2026;51.002;13.668;2023-06-26T16:02:32;7.60;;;6.70;;
4023;SDS011;2026;51.002;13.668;2023-06-26T16:07:35;9.18;;;7.40;;
4023;SDS011;2026;51.002;13.668;2023-06-26T16:12:58;9.05;;;7.72;;
4023;SDS011;2026;51.002;13.668;2023-06-26T16:18:01;13.10;;;8.43;;
4023;SDS011;2026;51.002;13.668;2023-06-26T16:23:04;15.27;;;9.70;;
4023;SDS011;2026;51.002;13.668;2023-06-26T16:28:08;21.35;;;9.88;;
4023;SDS011;2026;51.002;13.668;2023-06-26T16:33:11;14.15;;;10.82;;
4023;SDS011;2026;51.002;13.668;2023-06-26T16:38:14;14.25;;;9.85;;
4023;SDS011;2026;51.002;13.668;2023-06-26T16:43:18;10.00;;;8.32;;
4023;SDS011;2026;51.002;13.668;2023-06-26T16:48:21;9.95;;;7.22;;
4023;SDS011;2026;51.002;13.668;2023-06-26T16:53:24;14.18;;;8.07;;
4023;SDS011;2026;51.002;13.668;2023-06-26T16:58:28;10.23;;;8.60;;
4023;SDS011;2026;51.002;13.668;2023-06-26T17:03:31;12.27;;;7.82;;
4023;SDS011;2026;51.002;13.668;2023-06-26T17:08:34;9.75;;;6.95;;
4023;SDS011;2026;51.002;13.668;2023-06-26T17:13:39;9.93;;;7.75;;
4023;SDS011;2026;51.002;13.668;2023-06-26T17:18:42;8.98;;;7.32;;
4023;SDS011;2026;51.002;13.668;2023-06-26T17:23:45;10.68;;;8.38;;
4023;SDS011;2026;51.002;13.668;2023-06-26T17:28:50;12.82;;;8.30;;
4023;SDS011;2026;51.002;13.668;2023-06-26T17:33:53;10.88;;;8.20;;
4023;SDS011;2026;51.002;13.668;2023-06-26T17:38:56;9.98;;;8.98;;
4023;SDS011;2026;51.002;13.668;2023-06-26T17:44:03;11.30;;;9.23;;
4023;SDS011;2026;51.002;13.668;2023-06-26T17:49:06;11.80;;;10.25;;
4023;SDS011;2026;51.002;13.668;2023-06-26T17:54:09;14.57;;;10.93;;
4023;SDS011;2026;51.002;13.668;2023-06-26T17:59:14;13.65;;;11.02;;
4023;SDS011;2026;51.002;13.668;2023-06-26T18:04:17;12.90;;;11.52;;
4023;SDS011;2026;51.002;13.668;2023-06-26T18:09:20;18.38;;;11.45;;
4023;SDS011;2026;51.002;13.668;2023-06-26T18:14:25;12.93;;;11.52;;
4023;SDS011;2026;51.002;13.668;2023-06-26T18:19:28;14.90;;;11.82;;
4023;SDS011;2026;51.002;13.668;2023-06-26T18:24:31;16.55;;;11.82;;
4023;SDS011;2026;51.002;13.668;2023-06-26T18:29:35;16.83;;;12.32;;
4023;SDS011;2026;51.002;13.668;2023-06-26T18:34:39;17.27;;;11.17;;
4023;SDS011;2026;51.002;13.668;2023-06-26T18:39:42;14.73;;;11.70;;
4023;SDS011;2026;51.002;13.668;2023-06-26T18:44:46;15.97;;;12.60;;
4023;SDS011;2026;51.002;13.668;2023-06-26T18:49:50;12.80;;;11.47;;
4023;SDS011;2026;51.002;13.668;2023-06-26T18:54:53;15.53;;;11.50;;
4023;SDS011;2026;51.002;13.668;2023-06-26T18:59:58;14.07;;;11.18;;
4023;SDS011;2026;51.002;13.668;2023-06-26T19:05:01;14.07;;;11.88;;
4023;SDS011;2026;51.002;13.668;2023-06-26T19:10:04;13.03;;;10.53;;
4023;SDS011;2026;51.002;13.668;2023-06-26T19:15:11;18.60;;;11.57;;
4023;SDS011;2026;51.002;13.668;2023-06-26T19:20:14;12.03;;;10.73;;
4023;SDS011;2026;51.002;13.668;2023-06-26T19:25:17;13.93;;;10.45;;
4023;SDS011;2026;51.002;13.668;2023-06-26T19:30:21;13.50;;;10.27;;
4023;SDS011;2026;51.002;13.668;2023-06-26T19:35:24;11.18;;;9.98;;
4023;SDS011;2026;51.002;13.668;2023-06-26T19:40:29;13.40;;;10.60;;
4023;SDS011;2026;51.002;13.668;2023-06-26T19:45:34;16.92;;;10.98;;
4023;SDS011;2026;51.002;13.668;2023-06-26T19:50:37;14.23;;;10.48;;
4023;SDS011;2026;51.002;13.668;2023-06-26T19:55:40;14.75;;;10.57;;
4023;SDS011;2026;51.002;13.668;2023-06-26T20:00:44;14.00;;;11.30;;
4023;SDS011;2026;51.002;13.668;2023-06-26T20:05:48;13.77;;;10.40;;
4023;SDS011;2026;51.002;13.668;2023-06-26T20:10:51;13.57;;;10.70;;
4023;SDS011;2026;51.002;13.668;2023-06-26T20:15:56;11.70;;;10.57;;
4023;SDS011;2026;51.002;13.668;2023-06-26T20:20:59;14.23;;;10.23;;
4023;SDS011;2026;51.002;13.668;2023-06-26T20:26:02;14.15;;;10.85;;
4023;SDS011;2026;51.002;13.668;2023-06-26T20:31:06;13.63;;;10.57;;
4023;SDS011;2026;51.002;13.668;2023-06-26T20:36:09;16.93;;;11.20;;
4023;SDS011;2026;51.002;13.668;2023-06-26T20:41:12;11.73;;;10.50;;
4023;SDS011;2026;51.002;13.668;2023-06-26T20:46:17;14.63;;;10.60;;
4023;SDS011;2026;51.002;13.668;2023-06-26T20:51:21;13.10;;;11.03;;
4023;SDS011;2026;51.002;13.668;2023-06-26T20:56:27;13.90;;;10.60;;
4023;SDS011;2026;51.002;13.668;2023-06-26T21:01:32;13.10;;;10.57;;
4023;SDS011;2026;51.002;13.668;2023-06-26T21:06:35;12.53;;;10.47;;
4023;SDS011;2026;51.002;13.668;2023-06-26T21:11:38;12.40;;;10.57;;
4023;SDS011;2026;51.002;13.668;2023-06-26T21:16:42;15.03;;;11.33;;
4023;SDS011;2026;51.002;13.668;2023-06-26T21:21:45;12.57;;;10.33;;
4023;SDS011;2026;51.002;13.668;2023-06-26T21:26:48;13.40;;;11.33;;
4023;SDS011;2026;51.002;13.668;2023-06-26T21:31:52;12.83;;;11.30;;
4023;SDS011;2026;51.002;13.668;2023-06-26T21:36:55;12.87;;;10.53;;
4023;SDS011;2026;51.002;13.668;2023-06-26T21:41:58;15.37;;;11.23;;
4023;SDS011;2026;51.002;13.668;2023-06-26T21:47:03;13.30;;;11.90;;
4023;SDS011;2026;51.002;13.668;2023-06-26T21:52:06;19.10;;;12.80;;
4023;SDS011;2026;51.002;13.668;2023-06-26T21:57:09;13.27;;;11.53;;
4023;SDS011;2026;51.002;13.668;2023-06-26T22:02:14;13.20;;;11.60;;
4023;SDS011;2026;51.002;13.668;2023-06-26T22:07:17;15.20;;;10.60;;
4023;SDS011;2026;51.002;13.668;2023-06-26T22:12:20;13.17;;;11.43;;
4023;SDS011;2026;51.002;13.668;2023-06-26T22:17:27;15.60;;;11.10;;
4023;SDS011;2026;51.002;13.668;2023-06-26T22:22:32;12.87;;;11.17;;
4023;SDS011;2026;51.002;13.668;2023-06-26T22:27:35;14.30;;;10.33;;
4023;SDS011;2026;51.002;13.668;2023-06-26T22:32:39;15.30;;;11.70;;
4023;SDS011;2026;51.002;13.668;2023-06-26T22:37:43;12.40;;;11.10;;
4023;SDS011;2026;51.002;13.668;2023-06-26T22:42:46;15.70;;;13.47;;
4023;SDS011;2026;51.002;13.668;2023-06-26T22:47:50;18.00;;;12.20;;
4023;SDS011;2026;51.002;13.668;2023-06-26T22:52:53;13.17;;;11.87;;
4023;SDS011;2026;51.002;13.668;2023-06-26T22:57:56;14.10;;;12.60;;
4023;SDS011;2026;51.002;13.668;2023-06-26T23:03:01;15.47;;;12.20;;
4023;SDS011;2026;51.002;13.668;2023-06-26T23:08:04;13.60;;;10.57;;
4023;SDS011;2026;51.002;13.668;2023-06-26T23:13:08;16.87;;;13.07;;
4023;SDS011;2026;51.002;13.668;2023-06-26T23:18:12;12.63;;;10.20;;
4023;SDS011;2026;51.002;13.668;2023-06-26T23:23:15;15.03;;;10.10;;
4023;SDS011;2026;51.002;13.668;2023-06-26T23:28:18;16.90;;;10.57;;
4023;SDS011;2026;51.002;13.668;2023-06-26T23:33:22;11.80;;;8.83;;
4023;SDS011;2026;51.002;13.668;2023-06-26T23:38:30;9.97;;;7.57;;
4023;SDS011;2026;51.002;13.668;2023-06-26T23:43:36;11.50;;;7.23;;
4023;SDS011;2026;51.002;13.668;2023-06-26T23:48:43;6.97;;;5.87;;
4023;SDS011;2026;51.002;13.668;2023-06-26T23:53:45;6.80;;;5.67;;
4023;SDS011;2026;51.002;13.668;2023-06-26T23:58:48;7.53;;;5.10;;
